Anatife — FGE8389 — position and weather

sailwx.info

Track history (hours):
 
Tides and Currents Weather Stations Pressure Air Temp Water Temp Dewpoint Dewpoint Depression Visibility Wind Speed Wind Dir Waves Ship Positions

Anatife

Last reported at 2014-Sep-08 12:26 UTC. Time now 2014-Sep-16 09:23 UTC.
Position N 47°44' W 003°22'.

Length 41 m; draft 2 m.

Type: Tanker. MMSI: 227681520.

Date/timePositionNaut miles runAvg speedWind from/ knotsBaromVisibWave heightAir tempDewpointWater temp
2014-Sep-08 12:26N 47°44' W 003°22'1 0.9
2014-Sep-08 11:33N 47°44' W 003°21'0 0.0
2014-Sep-06 15:33N 47°44' W 003°21'0 0.0
2014-Sep-06 14:33N 47°44' W 003°21'0 0.0
2014-Sep-06 13:33N 47°44' W 003°21'0 0.0
2014-Sep-06 12:33N 47°44' W 003°21'2 1.7
2014-Sep-06 11:33N 47°43' W 003°22'9 8.7
2014-Sep-06 10:33N 47°35' W 003°17'1010.4
2014-Sep-06 09:33N 47°26' W 003°08'1010.4
2014-Sep-06 08:33N 47°19' W 002°57'1010.5
2014-Sep-06 07:33N 47°15' W 002°43'1110.6
2014-Sep-06 06:33N 47°13' W 002°27'1110.7
2014-Sep-06 05:33N 47°16' W 002°12'5 5.4
2014-Sep-06 04:33N 47°18' W 002°05'  
2014-Sep-03 21:08N 47°21' W 003°09'2 4.1
2014-Sep-03 20:32N 47°20' W 003°06'1010.4
2014-Sep-03 19:31N 47°17' W 002°51'38 0.8
2014-Sep-01 17:14N 46°45' W 002°21'32 2.7
2014-Sep-01 05:33N 47°16' W 002°12'0 0.0
2014-Sep-01 03:17N 47°16' W 002°12'  
Track history (hours):
 
Tides and Currents Weather Stations Pressure Air Temp Water Temp Dewpoint Dewpoint Depression Visibility Wind Speed Wind Dir Waves Ship Positions

Anatife

Last reported at 2014-Sep-08 12:26 UTC. Time now 2014-Sep-16 09:23 UTC.
Position N 47°44' W 003°22'.

Length 41 m; draft 2 m.

Type: Tanker. MMSI: 227681520.

Date/timePositionNaut miles runAvg speedWind from/ knotsBaromVisibWave heightAir tempDewpointWater temp
2014-Sep-08 12:26N 47°44' W 003°22'1 0.9
2014-Sep-08 11:33N 47°44' W 003°21'0 0.0
2014-Sep-06 15:33N 47°44' W 003°21'0 0.0
2014-Sep-06 14:33N 47°44' W 003°21'0 0.0
2014-Sep-06 13:33N 47°44' W 003°21'0 0.0
2014-Sep-06 12:33N 47°44' W 003°21'2 1.7
2014-Sep-06 11:33N 47°43' W 003°22'9 8.7
2014-Sep-06 10:33N 47°35' W 003°17'1010.4
2014-Sep-06 09:33N 47°26' W 003°08'1010.4
2014-Sep-06 08:33N 47°19' W 002°57'1010.5
2014-Sep-06 07:33N 47°15' W 002°43'1110.6
2014-Sep-06 06:33N 47°13' W 002°27'1110.7
2014-Sep-06 05:33N 47°16' W 002°12'5 5.4
2014-Sep-06 04:33N 47°18' W 002°05'  
2014-Sep-03 21:08N 47°21' W 003°09'2 4.1
2014-Sep-03 20:32N 47°20' W 003°06'1010.4
2014-Sep-03 19:31N 47°17' W 002°51'38 0.8
2014-Sep-01 17:14N 46°45' W 002°21'32 2.7
2014-Sep-01 05:33N 47°16' W 002°12'0 0.0
2014-Sep-01 03:17N 47°16' W 002°12'  

Dump ship's entire track history